Time;durP1;ratioP1;P1;durP2;ratioP2;P2;SDS_P1;SDS_P2;PMS_P1;PMS_P2;Temp;Humidity;BMP_temperature;BMP_pressure;BME280_temperature;BME280_humidity;BME280_pressure;Samples;Min_cycle;Max_cycle;Signal;HPM_P1;HPM_P2
2022/06/06 00:00:24;;;;;;;0.70;0.60;;;13.80;1.40;;;14.72;100.00;95497.11;648543;212;31488;-74
2022/06/06 00:03:06;;;;;;;0.40;0.30;;;13.80;1.40;;;14.71;100.00;95495.78;646664;216;31508;-74
2022/06/06 00:05:48;;;;;;;0.80;0.80;;;13.80;1.40;;;14.67;100.00;95490.20;646888;216;31567;-74
2022/06/06 00:08:29;;;;;;;0.73;0.73;;;13.70;1.40;;;14.61;100.00;95492.72;645123;216;31473;-74
2022/06/06 00:13:53;;;;;;;0.70;0.60;;;13.60;1.40;;;14.55;100.00;95487.92;650270;212;31889;-74
2022/06/06 00:16:35;;;;;;;2.20;0.75;;;13.60;1.40;;;14.51;100.00;95483.39;645089;216;36360;-74
2022/06/06 00:19:17;;;;;;;0.90;0.90;;;13.60;1.40;;;14.47;100.00;95483.94;646609;216;31484;-74
2022/06/06 00:21:59;;;;;;;0.70;0.50;;;13.50;1.40;;;14.39;100.00;95478.02;646892;216;31471;-74
2022/06/06 00:24:40;;;;;;;0.90;0.80;;;13.50;1.40;;;14.43;100.00;95473.25;645093;212;31567;-75
2022/06/06 00:27:25;;;;;;;0.40;0.30;;;13.50;1.40;;;14.39;100.00;95474.05;644670;216;31576;-74
2022/06/06 00:30:07;;;;;;;4.30;0.70;;;13.50;1.40;;;14.35;100.00;95475.81;653069;216;31499;-75
2022/06/06 00:35:54;;;;;;;1.00;0.62;;;13.30;1.40;;;14.17;100.00;95475.25;648176;212;31533;-74
2022/06/06 00:38:38;;;;;;;0.73;0.52;;;13.30;1.40;;;14.16;100.00;95473.69;617238;226;31824;-74
2022/06/06 00:44:06;;;;;;;1.27;0.80;;;13.20;1.40;;;14.12;100.00;95482.59;647950;212;31501;-74
2022/06/06 00:46:55;;;;;;;0.70;0.50;;;13.20;1.40;;;14.05;100.00;95487.29;649033;216;42688;-74
2022/06/06 00:51:37;;;;;;;0.60;0.40;;;13.20;1.40;;;14.07;100.00;95492.47;646009;212;31571;-76
2022/06/06 00:54:25;;;;;;;0.80;0.60;;;13.10;1.40;;;13.97;100.00;95492.60;646937;216;31627;-74
2022/06/06 00:57:07;;;;;;;1.20;0.60;;;13.00;1.40;;;13.92;100.00;95497.80;648518;216;31503;-74
2022/06/06 00:59:49;;;;;;;1.48;0.70;;;12.90;1.40;;;13.86;100.00;95492.08;646964;216;32047;-75
2022/06/06 01:02:33;;;;;;;0.50;0.50;;;12.90;1.40;;;13.82;100.00;95487.53;649051;212;32004;-76
2022/06/06 01:05:22;;;;;;;2.30;0.70;;;12.70;1.40;;;13.78;100.00;95488.04;650685;212;31497;-74
2022/06/06 01:08:04;;;;;;;0.60;0.40;;;12.70;1.40;;;13.74;100.00;95488.30;647907;212;31565;-75
2022/06/06 01:10:46;;;;;;;0.40;0.30;;;12.70;1.40;;;13.71;100.00;95487.82;649217;216;31456;-74
2022/06/06 01:13:28;;;;;;;0.70;0.52;;;12.60;1.40;;;13.61;100.00;95486.45;646920;212;32208;-74
2022/06/06 01:16:47;;;;;;;0.40;0.30;;;12.50;1.40;;;13.48;100.00;95490.16;644778;216;31612;-74
2022/06/06 01:19:58;;;;;;;1.00;0.45;;;12.30;1.40;;;13.41;100.00;95493.62;645335;216;31484;-74
2022/06/06 01:22:58;;;;;;;0.50;0.40;;;12.30;1.40;;;13.34;100.00;95495.87;650462;216;42662;-74
2022/06/06 01:26:04;;;;;;;1.00;0.60;;;12.20;1.40;;;13.39;100.00;95496.66;648303;216;40880;-77
2022/06/06 01:29:03;;;;;;;1.20;0.80;;;12.40;1.40;;;13.42;100.00;95498.81;645768;216;42159;-74
2022/06/06 01:35:53;;;;;;;0.45;0.40;;;12.60;1.40;;;13.47;100.00;95489.83;652672;216;31488;-77
2022/06/06 01:38:41;;;;;;;1.77;0.57;;;12.60;1.40;;;13.41;100.00;95486.77;647256;216;32221;-74
2022/06/06 01:41:26;;;;;;;0.40;0.30;;;12.40;1.40;;;13.23;100.00;95494.81;618582;226;42869;-74
2022/06/06 01:44:30;;;;;;;1.48;0.65;;;12.20;1.40;;;13.06;100.00;95496.86;649293;216;36953;-76
2022/06/06 01:47:12;;;;;;;0.80;0.50;;;11.90;1.40;;;12.94;100.00;95493.50;644361;212;31554;-76
2022/06/06 01:50:00;;;;;;;0.60;0.60;;;11.80;1.40;;;12.82;100.00;95495.75;648045;216;31563;-74
2022/06/06 01:52:54;;;;;;;0.60;0.50;;;11.70;1.40;;;12.73;100.00;95497.67;646095;216;42130;-75
2022/06/06 01:55:35;;;;;;;1.20;1.10;;;11.70;1.40;;;12.74;100.00;95505.44;647708;216;42098;-74
2022/06/06 01:58:20;;;;;;;0.90;0.40;;;11.70;1.40;;;12.67;100.00;95501.28;619980;226;37071;-75
2022/06/06 02:01:02;;;;;;;0.70;0.60;;;11.70;1.40;;;12.65;100.00;95503.22;617583;226;42495;-74
2022/06/06 02:03:43;;;;;;;0.50;0.50;;;11.70;1.40;;;12.55;100.00;95498.67;648649;216;31599;-75
2022/06/06 02:06:31;;;;;;;2.10;1.40;;;11.50;1.40;;;12.43;100.00;95496.00;646950;212;42686;-76
2022/06/06 02:09:19;;;;;;;0.50;0.40;;;11.30;1.40;;;12.37;100.00;95493.61;642868;216;31715;-75
2022/06/06 02:12:04;;;;;;;0.60;0.57;;;11.30;1.40;;;12.21;100.00;95495.22;649169;216;32751;-75
2022/06/06 02:14:47;;;;;;;0.70;0.40;;;11.10;1.40;;;12.29;100.00;95498.19;650635;216;35333;-74
2022/06/06 02:17:30;;;;;;;0.40;0.40;;;11.30;1.40;;;12.29;100.00;95496.11;649156;216;31495;-74
2022/06/06 02:20:15;;;;;;;0.60;0.30;;;11.30;1.40;;;12.38;100.00;95494.39;648454;216;33821;-76
2022/06/06 02:22:59;;;;;;;1.10;0.50;;;11.40;1.40;;;12.27;100.00;95496.96;644975;216;34493;-74
2022/06/06 02:25:40;;;;;;;0.65;0.65;;;11.20;1.40;;;12.34;100.00;95499.02;648995;216;31580;-74
2022/06/06 02:28:22;;;;;;;1.70;0.80;;;11.40;1.40;;;12.37;100.00;95497.81;647282;216;35219;-74
2022/06/06 02:31:07;;;;;;;0.47;0.40;;;11.30;1.40;;;12.23;100.00;95493.44;647568;216;31525;-74
2022/06/06 02:35:51;;;;;;;0.80;0.80;;;11.00;1.40;;;12.03;100.00;95499.88;651358;212;31553;-74
2022/06/06 02:38:33;;;;;;;0.80;0.73;;;10.90;1.40;;;11.91;100.00;95500.62;618699;226;33470;-74
2022/06/06 02:41:17;;;;;;;0.40;0.30;;;10.80;1.40;;;11.81;100.00;95505.25;646304;216;31542;-74
2022/06/06 02:46:37;;;;;;;0.40;0.20;;;10.60;1.40;;;11.66;100.00;95504.44;649172;213;31469;-77
2022/06/06 02:49:20;;;;;;;0.50;0.30;;;10.50;1.40;;;11.64;100.00;95499.22;645168;216;34299;-74
2022/06/06 02:52:08;;;;;;;1.70;0.70;;;10.60;1.40;;;11.68;100.00;95501.88;648439;216;31472;-76
2022/06/06 02:54:56;;;;;;;0.50;0.50;;;10.70;1.40;;;11.86;100.00;95503.39;649554;212;37795;-74
2022/06/06 02:57:41;;;;;;;0.90;0.70;;;11.10;1.40;;;12.01;100.00;95505.34;649293;216;31503;-75
2022/06/06 03:00:24;;;;;;;0.70;0.60;;;11.20;1.40;;;12.12;100.00;95513.08;645742;212;35199;-74
2022/06/06 03:03:05;;;;;;;0.80;0.40;;;11.40;1.40;;;12.24;100.00;95507.11;618226;226;31845;-74
2022/06/06 03:12:22;;;;;;;0.75;0.62;;;11.30;1.40;;;12.26;100.00;95521.82;641671;216;31997;-77
2022/06/06 03:21:09;;;;;;;0.40;0.20;;;11.30;1.40;;;12.11;100.00;95524.68;649096;216;31487;-74
2022/06/06 03:23:57;;;;;;;0.80;0.70;;;11.10;1.40;;;11.98;100.00;95526.90;646646;216;33386;-74
2022/06/06 03:26:58;;;;;;;0.60;0.40;;;10.90;1.40;;;11.88;100.00;95530.39;647917;212;31486;-77
2022/06/06 03:30:07;;;;;;;1.17;1.08;;;10.90;1.40;;;11.91;100.00;95529.20;648015;216;33161;-74
2022/06/06 03:35:53;;;;;;;1.00;0.50;;;10.70;1.40;;;11.74;100.00;95536.11;650363;216;31462;-74
2022/06/06 03:38:54;;;;;;;0.50;0.30;;;10.70;1.40;;;11.75;100.00;95540.63;647749;212;35351;-74
2022/06/06 03:41:41;;;;;;;0.60;0.40;;;10.70;1.40;;;11.72;100.00;95543.36;649122;212;31475;-74
2022/06/06 03:44:31;;;;;;;0.80;0.50;;;10.70;1.40;;;11.74;100.00;95543.38;646337;216;32850;-74
2022/06/06 03:47:14;;;;;;;0.67;0.30;;;10.80;1.40;;;11.84;100.00;95548.48;644737;212;31977;-74
2022/06/06 03:50:06;;;;;;;0.60;0.40;;;10.90;1.40;;;11.90;100.00;95555.13;646160;216;32495;-74
2022/06/06 03:52:49;;;;;;;0.50;0.50;;;11.00;1.40;;;12.02;100.00;95553.27;622611;225;42489;-74
2022/06/06 03:56:01;;;;;;;1.10;1.00;;;11.10;1.40;;;12.01;100.00;95556.28;652040;212;32357;-74
2022/06/06 03:58:42;;;;;;;0.80;0.50;;;11.00;1.40;;;11.99;100.00;95555.63;647071;216;31507;-74
2022/06/06 04:01:27;;;;;;;0.90;0.40;;;11.00;1.40;;;12.03;100.00;95564.54;648036;216;33885;-74
2022/06/06 04:04:08;;;;;;;0.50;0.40;;;11.10;1.40;;;12.10;100.00;95566.46;647463;216;31555;-74
2022/06/06 04:06:50;;;;;;;0.93;0.70;;;11.20;1.40;;;12.09;100.00;95568.93;645385;216;35400;-75
2022/06/06 04:09:32;;;;;;;1.75;1.65;;;11.10;1.40;;;12.05;100.00;95570.47;638752;216;31691;-74
2022/06/06 04:12:21;;;;;;;0.68;0.68;;;11.00;1.40;;;11.99;100.00;95573.93;623240;226;34188;-74
2022/06/06 04:15:41;;;;;;;1.00;0.80;;;11.00;1.40;;;12.07;100.00;95577.70;648548;216;31492;-78
2022/06/06 04:18:55;;;;;;;0.60;0.40;;;10.90;1.40;;;12.02;100.00;95577.02;647471;212;31920;-74
2022/06/06 04:22:12;;;;;;;0.73;0.55;;;11.00;1.40;;;11.98;100.00;95577.86;648408;216;35617;-74
2022/06/06 04:25:03;;;;;;;0.80;0.70;;;11.00;1.40;;;12.04;100.00;95571.63;645143;216;31582;-75
2022/06/06 04:27:51;;;;;;;0.90;0.80;;;11.00;1.40;;;12.09;100.00;95566.53;622956;225;34003;-74
2022/06/06 04:31:07;;;;;;;0.77;0.70;;;11.00;1.40;;;12.13;100.00;95566.31;643663;216;42163;-74
2022/06/06 04:36:07;;;;;;;0.60;0.40;;;11.10;1.40;;;11.96;100.00;95568.74;647022;216;31596;-75
2022/06/06 04:38:55;;;;;;;1.00;0.50;;;11.00;1.40;;;12.13;100.00;95568.55;648610;212;33375;-75
2022/06/06 04:41:50;;;;;;;0.87;0.73;;;11.20;1.40;;;12.22;100.00;95563.98;647393;216;31747;-74
2022/06/06 04:44:44;;;;;;;0.60;0.40;;;11.30;1.40;;;12.39;100.00;95568.16;645751;212;31468;-74
2022/06/06 04:50:06;;;;;;;0.90;0.47;;;11.50;1.40;;;12.58;100.00;95576.38;649404;216;31532;-74
2022/06/06 04:52:53;;;;;;;0.65;0.60;;;11.60;1.40;;;12.70;100.00;95573.08;646556;216;41068;-77
2022/06/06 04:55:40;;;;;;;0.90;0.60;;;11.70;1.40;;;12.78;100.00;95572.37;649975;216;38214;-74
2022/06/06 04:58:22;;;;;;;0.62;0.55;;;11.80;1.40;;;12.96;100.00;95578.41;648545;216;42887;-74
2022/06/06 05:01:04;;;;;;;12.30;1.02;;;12.00;1.40;;;13.07;100.00;95574.95;643733;213;31690;-74
2022/06/06 05:03:45;;;;;;;0.70;0.70;;;12.10;1.40;;;13.10;100.00;95586.83;647557;212;32043;-74
2022/06/06 05:06:53;;;;;;;1.05;1.00;;;12.10;1.40;;;13.19;100.00;95584.37;645772;216;31914;-74
2022/06/06 05:09:54;;;;;;;1.10;0.50;;;12.20;1.40;;;13.26;100.00;95586.73;607875;226;32681;-74
2022/06/06 05:12:59;;;;;;;1.00;0.50;;;12.30;1.40;;;13.35;100.00;95587.84;645572;216;31464;-74
2022/06/06 05:16:12;;;;;;;0.70;0.60;;;12.50;1.40;;;13.56;100.00;95584.83;647274;212;31497;-75
2022/06/06 05:19:06;;;;;;;0.60;0.57;;;12.60;1.40;;;13.67;100.00;95589.84;649867;216;31562;-75
2022/06/06 05:24:52;;;;;;;0.88;0.60;;;12.80;1.40;;;13.72;100.00;95592.78;646577;212;32106;-74
2022/06/06 05:27:38;;;;;;;;;;;12.70;1.40;;;13.81;100.00;95593.94;656246;216;24833;-75
2022/06/06 05:30:33;;;;;;;;;;;12.90;1.40;;;13.89;100.00;95595.44;656739;216;24852;-75
2022/06/06 05:35:56;;;;;;;0.82;0.65;;;13.10;1.40;;;14.02;100.00;95598.53;649176;216;32062;-74
2022/06/06 05:38:55;;;;;;;0.57;0.50;;;13.10;1.40;;;14.04;100.00;95590.44;644220;216;31487;-77
2022/06/06 05:41:57;;;;;;;0.98;0.70;;;13.20;1.40;;;14.14;100.00;95592.17;646319;212;32116;-77
2022/06/06 05:44:56;;;;;;;1.00;0.50;;;13.30;1.40;;;14.25;100.00;95589.09;647857;216;31798;-77
2022/06/06 05:48:02;;;;;;;1.10;0.60;;;13.40;1.40;;;14.45;100.00;95589.64;620762;222;31851;-75
2022/06/06 05:51:12;;;;;;;0.88;0.50;;;13.60;1.40;;;14.53;100.00;95587.58;649859;216;31544;-74
2022/06/06 05:54:31;;;;;;;1.00;0.90;;;13.60;1.40;;;14.59;100.00;95587.44;648654;212;32003;-75
2022/06/06 05:57:38;;;;;;;0.95;0.50;;;13.80;1.40;;;14.82;100.00;95588.80;646024;216;31518;-77
2022/06/06 06:00:25;;;;;;;1.00;0.90;;;13.90;1.40;;;14.94;100.00;95581.08;647572;212;31534;-76
2022/06/06 06:05:52;;;;;;;0.90;0.80;;;14.10;1.40;;;15.35;100.00;95583.52;648213;215;31632;-75
2022/06/06 06:09:11;;;;;;;1.40;1.30;;;14.40;1.40;;;15.61;100.00;95577.73;643150;212;31844;-77
2022/06/06 06:12:03;;;;;;;1.23;1.02;;;14.60;1.40;;;16.04;100.00;95580.66;620164;222;32009;-76
2022/06/06 06:14:54;;;;;;;1.03;0.70;;;15.00;1.40;;;16.26;100.00;95581.20;651556;216;31468;-77
2022/06/06 06:17:37;;;;;;;0.87;0.87;;;15.00;1.40;;;16.22;100.00;95580.66;620326;225;32211;-75
2022/06/06 06:20:25;;;;;;;4.20;0.80;;;14.90;1.40;;;16.38;100.00;95582.31;649363;216;31515;-74
2022/06/06 06:23:07;;;;;;;0.60;0.35;;;15.10;1.40;;;16.61;100.00;95580.53;650227;216;31913;-74
2022/06/06 06:25:50;;;;;;;0.80;0.60;;;15.20;1.40;;;16.58;100.00;95586.86;619511;226;32474;-75
2022/06/06 06:28:33;;;;;;;0.80;0.60;;;15.30;1.40;;;16.68;100.00;95586.59;651367;212;32067;-77
2022/06/06 06:31:17;;;;;;;0.73;0.50;;;15.40;1.40;;;16.85;100.00;95589.99;618315;226;31809;-76
2022/06/06 06:36:20;;;;;;;0.70;0.70;;;15.90;1.40;;;17.75;100.00;95589.60;646776;216;31573;-74
2022/06/06 06:39:25;;;;;;;0.90;0.60;;;16.00;1.40;;;18.25;100.00;95597.19;650149;212;31495;-75
2022/06/06 06:42:21;;;;;;;1.00;0.70;;;16.30;1.40;;;18.29;100.00;95595.06;616844;224;31918;-77
2022/06/06 06:45:04;;;;;;;1.50;0.90;;;16.20;1.40;;;18.75;100.00;95591.55;648571;212;31695;-75
2022/06/06 06:47:52;;;;;;;3.20;0.65;;;16.50;1.40;;;18.98;100.00;95599.16;646501;212;31501;-76
2022/06/06 06:50:35;;;;;;;1.00;0.70;;;16.60;1.40;;;18.94;100.00;95603.53;617754;222;42942;-75
2022/06/06 06:53:49;;;;;;;1.40;0.90;;;16.50;1.40;;;18.83;100.00;95612.25;645887;212;42092;-75
2022/06/06 06:56:48;;;;;;;1.20;1.10;;;16.40;1.40;;;19.21;100.00;95602.88;621957;226;31819;-75
2022/06/06 06:59:43;;;;;;;0.80;0.60;;;16.70;1.40;;;19.13;100.00;95613.73;645001;216;42104;-76
2022/06/06 07:09:14;;;;;;;0.60;0.40;;;16.90;1.40;;;19.78;100.00;95619.06;640685;212;31719;-75
2022/06/06 07:12:02;;;;;;;1.10;0.68;;;17.20;1.40;;;19.68;100.00;95632.26;650298;216;31909;-76
2022/06/06 07:15:00;;;;;;;0.60;0.40;;;17.00;1.40;;;19.70;100.00;95634.07;647856;216;32643;-74
2022/06/06 07:17:43;;;;;;;0.80;0.80;;;17.10;1.40;;;19.94;100.00;95633.65;646277;212;31538;-76
2022/06/06 07:20:24;;;;;;;1.00;0.80;;;17.20;1.40;;;20.44;100.00;95626.16;645119;212;31518;-76
2022/06/06 07:23:07;;;;;;;0.70;0.70;;;17.50;1.40;;;20.56;100.00;95621.97;647185;212;31492;-75
2022/06/06 07:25:48;;;;;;;1.10;0.60;;;17.60;1.40;;;20.12;100.00;95626.95;646070;212;31517;-75
2022/06/06 07:28:29;;;;;;;0.70;0.70;;;17.60;1.40;;;20.23;100.00;95631.42;647703;216;31624;-75
2022/06/06 07:41:45;;;;;;;0.80;0.57;;;17.90;1.40;;;21.27;100.00;95633.25;617783;222;33067;-75
2022/06/06 07:44:40;;;;;;;0.98;0.90;;;18.40;1.40;;;21.02;100.00;95645.14;645593;216;32229;-75
2022/06/06 07:47:31;;;;;;;0.70;0.50;;;18.00;1.40;;;20.88;100.00;95647.13;649016;216;31479;-75
2022/06/06 07:53:02;;;;;;;0.60;0.43;;;18.00;1.40;;;21.08;100.00;95644.86;646884;216;31507;-75
2022/06/06 07:55:45;;;;;;;1.23;0.80;;;18.00;1.40;;;21.09;100.00;95640.80;647730;216;31493;-75
2022/06/06 07:58:28;;;;;;;1.20;0.80;;;18.00;1.40;;;20.69;100.00;95641.12;648770;216;31496;-74
2022/06/06 08:01:11;;;;;;;1.27;0.98;;;17.90;1.40;;;20.90;100.00;95643.16;647607;216;31515;-74
2022/06/06 08:03:54;;;;;;;0.90;0.70;;;18.20;1.40;;;21.66;100.00;95632.77;646246;216;31460;-74
2022/06/06 08:06:44;;;;;;;2.80;0.85;;;18.40;1.40;;;21.76;100.00;95639.20;646520;216;32238;-75
2022/06/06 08:09:33;;;;;;;1.17;0.80;;;18.70;1.40;;;22.03;100.00;95640.61;650779;216;31533;-75
2022/06/06 08:12:35;;;;;;;0.85;0.70;;;19.00;1.40;;;21.27;100.00;95641.90;645277;212;32232;-75
2022/06/06 08:15:35;;;;;;;1.02;0.70;;;18.70;1.40;;;21.20;100.00;95642.08;647191;216;31466;-75
2022/06/06 08:18:39;;;;;;;0.70;0.60;;;18.20;1.40;;;20.98;100.00;95642.73;647670;212;42241;-75
2022/06/06 08:23:55;;;;;;;0.68;0.60;;;19.30;1.40;;;21.59;100.00;95640.73;621164;226;42448;-76
2022/06/06 08:26:38;;;;;;;1.37;0.70;;;19.40;1.40;;;21.30;100.00;95639.98;647496;216;42156;-76
2022/06/06 08:29:19;;;;;;;0.85;0.60;;;19.10;1.40;;;21.12;100.00;95640.16;621421;222;42762;-77
2022/06/06 08:32:07;;;;;;;0.60;0.50;;;19.20;1.40;;;21.96;100.00;95639.52;646915;216;42122;-75
2022/06/06 08:36:03;;;;;;;1.30;0.80;;;20.10;1.40;;;21.68;100.00;95639.37;621174;226;31911;-76
2022/06/06 08:39:39;;;;;;;1.50;0.62;;;19.40;1.40;;;22.15;100.00;95642.03;621421;226;32262;-75
2022/06/06 08:42:27;;;;;;;0.80;0.50;;;19.80;1.40;;;22.05;100.00;95641.52;645550;216;31645;-75
2022/06/06 08:45:41;;;;;;;0.90;0.70;;;19.60;1.40;;;22.21;100.00;95641.64;647649;212;31672;-76
2022/06/06 08:48:33;;;;;;;0.88;0.73;;;19.40;1.40;;;21.65;100.00;95634.55;646718;216;31533;-75
2022/06/06 08:51:22;;;;;;;0.90;0.70;;;19.50;1.40;;;22.40;100.00;95636.41;646594;212;32273;-75
2022/06/06 08:54:40;;;;;;;1.00;0.62;;;19.80;1.40;;;21.31;100.00;95634.51;648032;216;31522;-75
2022/06/06 08:57:44;;;;;;;1.00;0.70;;;19.10;1.40;;;22.11;100.00;95638.97;646135;216;31453;-77
2022/06/06 09:00:55;;;;;;;0.68;0.60;;;20.00;1.40;;;22.56;100.00;95637.73;644640;216;31475;-75
2022/06/06 09:04:13;;;;;;;0.90;0.70;;;20.10;1.40;;;22.64;100.00;95629.47;644966;216;31458;-75
2022/06/06 09:07:15;;;;;;;0.80;0.60;;;20.30;1.40;;;23.19;100.00;95629.48;645426;216;31485;-75
2022/06/06 09:10:35;;;;;;;1.95;1.00;;;21.40;1.40;;;24.15;100.00;95619.17;641795;216;31630;-75
2022/06/06 09:19:00;;;;;;;0.68;0.62;;;20.40;1.40;;;23.33;100.00;95617.25;646218;216;31471;-78
2022/06/06 09:21:55;;;;;;;1.08;0.70;;;21.30;1.40;;;22.70;100.00;95607.49;648384;212;31467;-77
2022/06/06 09:25:09;;;;;;;1.33;1.00;;;21.50;1.40;;;24.96;100.00;95601.73;635336;222;31843;-75
2022/06/06 09:28:12;;;;;;;1.30;1.10;;;22.90;1.40;;;23.78;100.00;95607.30;647929;216;31471;-75
2022/06/06 09:31:21;;;;;;;0.80;0.70;;;22.50;1.40;;;23.95;100.00;95604.09;646600;216;31563;-75
2022/06/06 09:36:08;;;;;;;1.10;0.90;;;24.40;1.40;;;24.31;94.40;95606.36;649288;216;33655;-75
2022/06/06 09:41:37;;;;;;;1.40;1.10;;;23.20;99.90;;;26.07;89.18;95597.23;646716;216;42197;-75
2022/06/06 09:44:29;;;;;;;1.50;1.20;;;25.70;1.40;;;25.93;82.00;95604.56;648245;216;31480;-76
2022/06/06 09:47:21;;;;;;;1.08;1.00;;;24.90;1.40;;;28.02;85.45;95597.19;620302;226;32038;-77
2022/06/06 09:50:14;;;;;;;2.22;1.02;;;27.30;1.40;;;28.33;74.08;95594.27;644422;216;31622;-75
2022/06/06 09:53:18;;;;;;;1.20;1.10;;;26.30;1.40;;;28.62;69.09;95598.09;646504;216;31518;-75
2022/06/06 09:59:34;;;;;;;2.50;1.20;;;26.40;1.40;;;29.79;65.18;95589.55;647303;216;31505;-75
2022/06/06 10:02:51;;;;;;;1.20;1.10;;;27.30;1.40;;;31.06;70.29;95580.91;649117;216;31526;-75
2022/06/06 10:08:54;;;;;;;1.30;0.90;;;27.70;1.40;;;33.16;56.13;95568.58;648687;216;31569;-74
2022/06/06 10:11:54;;;;;;;1.90;1.80;;;29.80;1.40;;;31.66;50.65;95568.44;647924;216;31842;-77
2022/06/06 10:14:57;;;;;;;1.40;1.30;;;28.00;1.40;;;31.74;58.89;95566.66;649301;216;42656;-75
2022/06/06 10:17:43;;;;;;;1.05;1.00;;;28.10;1.40;;;33.07;54.04;95564.67;647559;215;31801;-74
2022/06/06 10:23:49;;;;;;;2.35;1.12;;;29.00;99.90;;;31.40;50.44;95565.03;645191;216;31619;-74
2022/06/06 10:26:36;;;;;;;1.20;1.10;;;27.00;1.40;;;31.86;53.26;95564.39;648450;212;31667;-75
2022/06/06 10:32:15;;;;;;;1.45;1.35;;;28.70;1.40;;;35.18;50.59;95554.28;644999;212;31563;-77
2022/06/06 10:35:59;;;;;;;2.20;1.10;;;29.20;1.40;;;34.59;52.08;95550.63;648461;216;31554;-77
2022/06/06 10:38:51;;;;;;;1.05;0.95;;;28.30;99.90;;;33.57;50.59;95551.40;622040;222;31877;-74
2022/06/06 10:42:03;;;;;;;2.20;1.20;;;27.50;1.40;;;31.75;49.93;95560.98;649804;216;31532;-73
2022/06/06 10:47:40;;;;;;;3.20;1.15;;;28.20;1.40;;;32.14;49.16;95547.96;647836;212;31617;-78
2022/06/06 10:50:28;;;;;;;2.67;1.23;;;28.20;1.40;;;33.14;48.04;95546.40;645739;216;31582;-73
2022/06/06 10:53:31;;;;;;;2.78;1.00;;;29.50;1.40;;;34.70;45.51;95532.28;651278;212;31759;-73
2022/06/06 10:56:20;;;;;;;1.67;1.20;;;29.20;99.90;;;32.80;45.47;95541.28;644880;216;32178;-74
2022/06/06 10:59:22;;;;;;;0.93;0.93;;;26.20;1.40;;;31.86;50.08;95546.72;647940;216;31540;-73
2022/06/06 11:02:22;;;;;;;4.22;1.30;;;24.90;1.40;;;29.76;53.59;95544.98;646175;212;31607;-78
2022/06/06 11:05:46;;;;;;;1.20;1.10;;;24.40;1.40;;;28.87;55.56;95551.20;647345;216;31507;-74
2022/06/06 11:08:38;;;;;;;1.65;1.10;;;23.30;1.40;;;26.07;66.78;95559.12;646084;212;31863;-75
2022/06/06 11:11:29;;;;;;;1.17;1.08;;;22.50;1.40;;;25.32;78.75;95558.23;650472;216;31542;-76
2022/06/06 11:14:18;;;;;;;1.00;0.90;;;22.00;1.40;;;23.81;97.16;95565.41;648298;212;42219;-76
2022/06/06 11:19:56;;;;;;;1.15;0.90;;;19.90;1.40;;;21.55;100.00;95566.06;645707;216;31632;-76
2022/06/06 11:22:41;;;;;;;1.10;0.70;;;19.60;1.40;;;20.90;100.00;95558.55;645812;216;42924;-76
2022/06/06 11:25:29;;;;;;;1.60;0.90;;;19.30;1.40;;;19.99;100.00;95552.96;647439;216;31879;-76
2022/06/06 11:28:44;;;;;;;1.70;0.90;;;18.70;1.40;;;19.68;100.00;95550.01;648578;216;32760;-75
2022/06/06 11:31:39;;;;;;;2.30;1.30;;;18.40;1.40;;;20.15;100.00;95544.42;648042;212;31514;-74
2022/06/06 11:36:07;;;;;;;1.20;1.10;;;18.90;1.40;;;20.80;100.00;95527.25;649896;212;31832;-74
2022/06/06 11:39:22;;;;;;;0.80;0.80;;;20.40;1.40;;;23.28;100.00;95530.33;645972;216;31843;-74
2022/06/06 11:42:12;;;;;;;1.23;0.82;;;22.20;1.40;;;24.55;100.00;95541.64;650140;216;42733;-75
2022/06/06 11:48:36;;;;;;;1.70;0.80;;;23.00;1.40;;;27.61;100.00;95529.52;646478;216;42136;-75
2022/06/06 11:51:54;;;;;;;1.60;1.15;;;24.00;1.40;;;29.00;96.17;95521.17;647379;216;31509;-79
2022/06/06 11:54:52;;;;;;;1.20;1.00;;;25.50;1.40;;;31.37;84.66;95518.56;648438;216;31550;-75
2022/06/06 11:57:36;;;;;;;3.50;1.33;;;26.20;1.40;;;32.16;76.67;95514.01;644486;216;31534;-75
2022/06/06 12:00:21;;;;;;;1.13;1.03;;;26.60;1.40;;;33.19;62.72;95505.80;644297;216;31818;-74
2022/06/06 12:03:25;;;;;;;1.70;1.00;;;26.60;1.40;;;34.44;66.39;95503.74;646156;212;31971;-74
2022/06/06 12:09:09;;;;;;;1.42;1.25;;;27.10;1.40;;;31.63;55.75;95508.25;649856;212;31781;-74
2022/06/06 12:12:05;;;;;;;2.20;1.48;;;26.20;1.40;;;32.95;63.39;95502.62;647883;216;31598;-74
2022/06/06 12:14:51;;;;;;;1.77;1.40;;;26.30;1.40;;;34.59;55.15;95498.52;645756;216;31525;-75
2022/06/06 12:17:38;;;;;;;0.80;0.80;;;26.90;1.40;;;34.00;53.94;95496.95;650461;212;42598;-75
2022/06/06 12:20:41;;;;;;;1.17;1.08;;;26.70;1.40;;;34.04;51.04;95494.98;644217;216;31612;-74
2022/06/06 12:23:28;;;;;;;1.40;1.30;;;26.90;1.40;;;35.08;49.53;95495.58;647166;216;31531;-76
2022/06/06 12:32:18;;;;;;;1.87;1.60;;;27.10;1.40;;;35.55;44.75;95485.55;649134;212;31638;-74
2022/06/06 12:35:58;;;;;;;1.35;1.20;;;27.30;1.40;;;34.78;44.87;95483.80;649591;216;31584;-74
2022/06/06 12:41:58;;;;;;;2.83;1.20;;;27.60;1.40;;;35.85;45.44;95481.05;653084;216;31583;-75
2022/06/06 12:45:09;;;;;;;1.30;1.20;;;27.90;1.40;;;36.75;42.66;95473.50;617220;226;31869;-74
2022/06/06 12:47:58;;;;;;;1.52;1.23;;;28.20;1.40;;;37.20;44.32;95465.70;650357;216;31626;-74
2022/06/06 12:51:07;;;;;;;1.00;1.00;;;28.70;1.40;;;36.39;44.79;95471.05;648785;216;31573;-77
2022/06/06 12:53:56;;;;;;;2.50;1.17;;;28.80;1.40;;;35.60;42.65;95464.64;648393;216;31636;-78
2022/06/06 12:56:56;;;;;;;1.35;1.20;;;28.20;1.40;;;32.71;46.77;95464.70;618329;226;31839;-77
2022/06/06 13:00:11;;;;;;;0.85;0.80;;;25.70;1.40;;;30.28;52.31;95469.67;648873;216;31503;-77
2022/06/06 13:03:10;;;;;;;0.90;0.90;;;26.20;1.40;;;32.04;52.00;95451.91;645268;212;31898;-78
2022/06/06 13:06:07;;;;;;;2.55;1.20;;;26.70;1.40;;;33.90;46.51;95450.08;650954;212;42470;-74
2022/06/06 13:09:01;;;;;;;1.30;0.90;;;27.70;1.40;;;34.98;44.84;95444.25;637442;212;42496;-77
2022/06/06 13:14:46;;;;;;;1.10;1.00;;;28.20;1.40;;;36.87;42.08;95435.37;644695;216;32270;-74
2022/06/06 13:20:25;;;;;;;1.10;1.00;;;28.20;1.40;;;37.70;43.01;95424.88;653623;216;31681;-78
2022/06/06 13:23:41;;;;;;;1.40;0.90;;;28.80;1.40;;;37.22;41.68;95424.95;647210;216;31851;-74
2022/06/06 13:26:55;;;;;;;1.58;1.00;;;29.10;1.40;;;36.10;43.25;95428.51;645385;216;31488;-78
2022/06/06 13:29:38;;;;;;;0.90;0.80;;;27.90;1.40;;;35.85;42.23;95429.64;621639;226;31977;-74
2022/06/06 13:32:46;;;;;;;1.10;1.00;;;28.50;1.40;;;36.05;41.34;95424.27;645634;216;31658;-74
2022/06/06 13:36:02;;;;;;;2.00;1.12;;;28.60;1.40;;;37.38;40.03;95418.88;622586;226;32656;-77
2022/06/06 13:38:56;;;;;;;2.22;1.20;;;28.20;1.40;;;32.58;43.61;95422.29;647998;216;32379;-73
2022/06/06 13:44:27;;;;;;;2.05;1.10;;;27.30;1.40;;;36.84;40.75;95401.38;650303;216;31560;-78
2022/06/06 13:47:43;;;;;;;1.90;1.10;;;27.10;1.40;;;34.29;45.50;95400.23;646389;216;31824;-73
2022/06/06 13:50:31;;;;;;;1.20;1.10;;;27.80;1.40;;;37.23;40.87;95400.12;645444;216;32289;-74
2022/06/06 13:53:40;;;;;;;1.00;0.90;;;28.60;1.40;;;33.04;42.06;95409.64;617879;222;31948;-74
2022/06/06 13:57:00;;;;;;;1.92;1.40;;;27.00;1.40;;;33.37;41.94;95405.78;647486;216;31528;-73
2022/06/06 14:00:03;;;;;;;2.20;0.90;;;28.30;1.40;;;36.05;39.47;95400.11;649584;212;31590;-77
2022/06/06 14:02:53;;;;;;;1.50;1.30;;;29.60;1.40;;;35.51;41.56;95400.16;645129;216;31747;-73
2022/06/06 14:05:57;;;;;;;1.10;1.00;;;29.50;1.40;;;33.74;40.41;95399.23;651030;216;31733;-73
2022/06/06 14:08:55;;;;;;;1.60;0.90;;;27.80;1.40;;;34.51;40.60;95393.44;649124;216;31544;-74
2022/06/06 14:11:44;;;;;;;0.90;0.90;;;28.30;1.40;;;33.71;42.76;95393.08;647294;212;31556;-73
2022/06/06 14:14:28;;;;;;;1.30;1.20;;;27.30;1.40;;;33.50;40.91;95394.48;622647;226;31886;-74
2022/06/06 14:17:10;;;;;;;1.20;1.10;;;27.30;1.40;;;33.33;43.12;95391.84;646041;216;32341;-77